createdAt,value
2022-11-12T00:01:23.635Z,36.92
2022-11-12T00:04:09.450Z,33.13
2022-11-12T00:06:54.742Z,36.33
2022-11-12T00:09:40.404Z,33.80
2022-11-12T00:12:25.725Z,34.35
2022-11-12T00:15:11.622Z,35.33
2022-11-12T00:17:57.234Z,32.63
2022-11-12T00:20:42.938Z,36.58
2022-11-12T00:23:28.398Z,33.45
2022-11-12T00:26:13.834Z,32.95
2022-11-12T00:28:59.147Z,31.63
2022-11-12T00:31:44.652Z,30.75
2022-11-12T00:34:30.199Z,30.63
2022-11-12T00:37:16.806Z,33.15
2022-11-12T00:40:02.011Z,32.13
2022-11-12T00:42:47.749Z,30.08
2022-11-12T00:45:33.393Z,28.75
2022-11-12T00:48:19.866Z,29.85
2022-11-12T00:51:06.373Z,29.92
2022-11-12T00:53:52.033Z,29.83
2022-11-12T00:56:39.076Z,28.23
2022-11-12T00:59:24.649Z,31.25
2022-11-12T01:02:10.214Z,32.45
2022-11-12T01:04:55.629Z,33.22
2022-11-12T01:07:41.499Z,38.60
2022-11-12T01:13:58.618Z,44.00
2022-11-12T01:16:44.489Z,45.70
2022-11-12T01:19:30.098Z,43.90
2022-11-12T01:22:15.742Z,44.08
2022-11-12T01:25:01.547Z,39.95
2022-11-12T01:27:46.906Z,38.03
2022-11-12T01:30:32.368Z,35.03
2022-11-12T01:33:17.799Z,35.05
2022-11-12T01:36:03.116Z,36.35
2022-11-12T01:38:48.752Z,28.77
2022-11-12T01:41:36.077Z,32.13
2022-11-12T01:44:23.106Z,27.35
2022-11-12T01:47:11.362Z,29.15
2022-11-12T01:50:01.026Z,28.95
2022-11-12T01:52:52.014Z,27.77
2022-11-12T01:55:37.728Z,28.48
2022-11-12T01:58:25.032Z,25.10
2022-11-12T02:01:10.968Z,26.27
2022-11-12T02:03:56.609Z,25.92
2022-11-12T02:06:42.328Z,24.75
2022-11-12T02:09:35.693Z,22.63
2022-11-12T02:12:39.605Z,28.05
2022-11-12T02:15:25.946Z,25.35
2022-11-12T02:18:11.456Z,25.42
2022-11-12T02:20:58.198Z,24.88
2022-11-12T02:23:43.428Z,24.50
2022-11-12T02:26:34.011Z,26.60
2022-11-12T02:29:19.560Z,24.65
2022-11-12T02:32:05.215Z,25.65
2022-11-12T02:34:50.690Z,25.88
2022-11-12T02:37:36.344Z,24.40
2022-11-12T02:40:21.816Z,23.38
2022-11-12T02:43:07.111Z,24.50
2022-11-12T02:46:00.010Z,21.88
2022-11-12T02:48:48.110Z,25.08
2022-11-12T02:51:33.650Z,25.35
2022-11-12T02:54:20.003Z,24.67
2022-11-12T02:57:05.695Z,26.08
2022-11-12T02:59:51.207Z,24.30
2022-11-12T03:02:42.955Z,24.92
2022-11-12T03:05:30.307Z,25.73
2022-11-12T03:08:15.591Z,24.55
2022-11-12T03:11:09.201Z,22.98
2022-11-12T03:13:54.894Z,21.47
2022-11-12T03:16:40.521Z,20.48
2022-11-12T03:19:27.626Z,21.30
2022-11-12T03:22:13.135Z,19.88
2022-11-12T03:25:00.988Z,20.35
2022-11-12T03:27:47.674Z,20.52
2022-11-12T03:30:34.930Z,20.63
2022-11-12T03:33:20.576Z,19.88
2022-11-12T03:36:06.415Z,20.02
2022-11-12T03:38:51.827Z,19.95
2022-11-12T03:41:37.236Z,19.80
2022-11-12T03:44:22.754Z,20.95
2022-11-12T03:47:08.490Z,20.75
2022-11-12T03:49:53.974Z,18.23
2022-11-12T03:52:39.455Z,17.52
2022-11-12T03:55:26.220Z,18.95
2022-11-12T03:58:11.885Z,17.05
2022-11-12T04:00:57.565Z,15.60
2022-11-12T04:03:43.446Z,15.63
2022-11-12T04:06:47.925Z,14.93
2022-11-12T04:09:33.498Z,15.15
2022-11-12T04:12:37.572Z,14.75
2022-11-12T04:15:22.944Z,15.82
2022-11-12T04:18:27.396Z,14.70
2022-11-12T04:21:33.705Z,13.75
2022-11-12T04:24:45.827Z,14.82
2022-11-12T04:27:33.002Z,15.05
2022-11-12T04:30:19.499Z,14.18
2022-11-12T04:33:05.038Z,14.68
2022-11-12T04:35:50.408Z,14.65
2022-11-12T04:38:35.706Z,13.98
2022-11-12T04:41:40.020Z,14.65
2022-11-12T04:44:44.499Z,14.05
2022-11-12T04:47:31.256Z,14.30
2022-11-12T04:50:18.169Z,13.95
2022-11-12T04:53:04.728Z,13.02
2022-11-12T04:55:51.526Z,13.75
2022-11-12T04:58:36.705Z,13.13
2022-11-12T05:01:22.324Z,14.25
2022-11-12T05:04:08.193Z,14.20
2022-11-12T05:06:54.568Z,14.27
2022-11-12T05:09:40.455Z,14.98
2022-11-12T05:12:26.075Z,15.18
2022-11-12T05:15:14.140Z,14.55
2022-11-12T05:17:59.455Z,14.10
2022-11-12T05:20:44.806Z,14.18
2022-11-12T05:23:30.612Z,15.35
2022-11-12T05:26:15.962Z,14.48
2022-11-12T05:29:04.943Z,14.95
2022-11-12T05:31:53.095Z,15.13
2022-11-12T05:34:38.875Z,14.02
2022-11-12T05:37:24.141Z,14.30
2022-11-12T05:40:10.157Z,14.48
2022-11-12T05:42:58.269Z,12.82
2022-11-12T05:45:44.029Z,12.68
2022-11-12T05:48:29.641Z,13.23
2022-11-12T05:51:15.581Z,12.82
2022-11-12T05:54:01.210Z,14.57
2022-11-12T05:56:46.653Z,13.85
2022-11-12T05:59:31.995Z,13.45
2022-11-12T06:02:17.564Z,12.63
2022-11-12T06:05:03.438Z,11.98
2022-11-12T06:07:48.725Z,11.77
2022-11-12T06:10:34.119Z,12.23
2022-11-12T06:13:20.440Z,11.82
2022-11-12T06:16:06.055Z,13.02
2022-11-12T06:18:51.623Z,15.15
2022-11-12T06:21:37.183Z,12.60
2022-11-12T06:24:22.882Z,13.38
2022-11-12T06:27:08.529Z,12.80
2022-11-12T06:29:53.856Z,13.55
2022-11-12T06:32:39.513Z,11.48
2022-11-12T06:35:25.098Z,11.63
2022-11-12T06:38:10.464Z,12.82
2022-11-12T06:40:56.517Z,12.73
2022-11-12T06:43:42.304Z,10.57
2022-11-12T06:46:27.639Z,12.13
2022-11-12T06:49:13.223Z,12.07
2022-11-12T06:51:58.751Z,11.75
2022-11-12T06:54:46.460Z,12.35
2022-11-12T06:57:32.418Z,12.30
2022-11-12T07:00:18.355Z,11.50
2022-11-12T07:03:07.916Z,12.18
2022-11-12T07:05:55.064Z,10.70
2022-11-12T07:08:41.123Z,11.52
2022-11-12T07:11:26.520Z,12.05
2022-11-12T07:14:12.258Z,11.93
2022-11-12T07:16:57.625Z,11.68
2022-11-12T07:19:42.832Z,12.52
2022-11-12T07:22:28.302Z,11.50
2022-11-12T07:25:13.619Z,12.40
2022-11-12T07:27:59.259Z,12.45
2022-11-12T07:30:44.834Z,13.02
2022-11-12T07:33:30.567Z,12.63
2022-11-12T07:36:17.544Z,13.13
2022-11-12T07:39:03.082Z,13.27
2022-11-12T07:41:48.610Z,13.73
2022-11-12T07:44:33.979Z,13.77
2022-11-12T07:47:19.379Z,13.10
2022-11-12T07:50:05.070Z,13.93
2022-11-12T07:52:50.484Z,14.30
2022-11-12T07:55:36.110Z,14.38
2022-11-12T07:58:21.569Z,14.57
2022-11-12T08:01:11.886Z,14.07
2022-11-12T08:04:01.497Z,13.60
2022-11-12T08:06:47.339Z,13.82
2022-11-12T08:09:33.616Z,13.45
2022-11-12T08:12:18.931Z,14.18
2022-11-12T08:15:06.424Z,14.27
2022-11-12T08:17:52.161Z,14.23
2022-11-12T08:20:38.105Z,15.45
2022-11-12T08:23:23.811Z,17.20
2022-11-12T08:26:11.017Z,16.90
2022-11-12T08:28:56.794Z,16.27
2022-11-12T08:31:42.145Z,17.27
2022-11-12T08:34:27.602Z,16.17
2022-11-12T08:37:13.526Z,15.32
2022-11-12T08:39:59.073Z,15.38
2022-11-12T08:42:44.755Z,16.08
2022-11-12T08:45:31.552Z,15.38
2022-11-12T08:48:17.088Z,15.65
2022-11-12T08:51:03.778Z,14.63
2022-11-12T08:53:49.166Z,14.57
2022-11-12T08:56:34.718Z,14.93
2022-11-12T08:59:20.211Z,16.88
2022-11-12T09:02:06.753Z,14.65
2022-11-12T09:04:52.137Z,15.45
2022-11-12T09:07:53.045Z,15.35
2022-11-12T09:10:39.456Z,14.80
2022-11-12T09:13:25.310Z,15.60
2022-11-12T09:16:11.106Z,15.23
2022-11-12T09:18:56.481Z,15.35
2022-11-12T09:21:42.125Z,15.85
2022-11-12T09:24:27.509Z,15.57
2022-11-12T09:27:13.134Z,17.70
2022-11-12T09:29:58.387Z,15.80
2022-11-12T09:32:43.896Z,17.23
2022-11-12T09:35:29.999Z,16.85
2022-11-12T09:38:15.610Z,16.25
2022-11-12T09:41:01.190Z,12.70
2022-11-12T09:43:52.053Z,12.43
2022-11-12T09:46:45.244Z,9.95
2022-11-12T09:49:36.980Z,10.18
2022-11-12T09:52:27.291Z,7.35
2022-11-12T09:55:44.173Z,5.93
2022-11-12T09:58:29.792Z,6.30
2022-11-12T10:01:35.586Z,7.13
2022-11-12T10:04:38.315Z,7.35
2022-11-12T10:07:32.447Z,6.93
2022-11-12T10:10:25.152Z,8.48
2022-11-12T10:13:31.670Z,7.88
2022-11-12T10:16:44.827Z,7.78
2022-11-12T10:19:55.394Z,8.82
2022-11-12T10:22:43.412Z,8.13
2022-11-12T10:25:29.596Z,8.60
2022-11-12T10:28:21.346Z,9.23
2022-11-12T10:31:17.422Z,9.00
2022-11-12T10:34:20.159Z,8.20
2022-11-12T10:37:10.670Z,8.68
2022-11-12T10:39:56.136Z,8.73
2022-11-12T10:43:06.800Z,8.73
2022-11-12T10:45:52.295Z,9.45
2022-11-12T10:48:37.579Z,8.70
2022-11-12T10:51:28.661Z,8.55
2022-11-12T10:54:22.533Z,8.63
2022-11-12T10:57:21.560Z,8.90
2022-11-12T11:00:09.317Z,8.55
2022-11-12T11:02:54.953Z,8.68
2022-11-12T11:06:01.267Z,8.65
2022-11-12T11:08:51.029Z,9.07
2022-11-12T11:11:36.865Z,8.57
2022-11-12T11:14:22.388Z,8.90
2022-11-12T11:17:16.927Z,8.70
2022-11-12T11:20:04.870Z,8.57
2022-11-12T11:23:11.608Z,8.40
2022-11-12T11:25:58.110Z,8.45
2022-11-12T11:29:14.098Z,7.97
2022-11-12T11:32:07.656Z,7.97
2022-11-12T11:35:11.790Z,7.80
2022-11-12T11:38:28.033Z,8.07
2022-11-12T11:41:58.518Z,7.25
2022-11-12T11:45:02.688Z,8.90
2022-11-12T11:48:02.113Z,8.52
2022-11-12T11:51:32.977Z,8.45
2022-11-12T11:54:41.005Z,8.13
2022-11-12T11:57:33.901Z,8.40
2022-11-12T12:00:20.912Z,7.72
2022-11-12T12:03:16.959Z,7.00
2022-11-12T12:06:56.681Z,7.68
2022-11-12T12:10:11.493Z,7.15
2022-11-12T12:13:11.002Z,7.07
2022-11-12T12:16:25.863Z,7.40
2022-11-12T12:19:26.556Z,7.22
2022-11-12T12:22:24.646Z,8.20
2022-11-12T12:25:15.078Z,8.02
2022-11-12T12:28:10.777Z,8.13
2022-11-12T12:30:58.777Z,8.75
2022-11-12T12:33:49.930Z,9.48
2022-11-12T12:36:40.705Z,8.18
2022-11-12T12:39:30.215Z,8.52
2022-11-12T12:42:26.890Z,9.02
2022-11-12T12:45:38.344Z,9.50
2022-11-12T12:48:38.640Z,9.15
2022-11-12T12:51:24.023Z,9.95
2022-11-12T12:54:54.642Z,9.18
2022-11-12T12:57:40.084Z,8.45
2022-11-12T13:00:39.339Z,9.65
2022-11-12T13:03:44.874Z,9.18
2022-11-12T13:06:34.934Z,8.95
2022-11-12T13:09:24.323Z,8.68
2022-11-12T13:12:10.087Z,9.05
2022-11-12T13:15:43.542Z,8.57
2022-11-12T13:18:38.108Z,8.27
2022-11-12T13:21:23.737Z,8.45
2022-11-12T13:24:12.537Z,9.00
2022-11-12T13:26:59.298Z,7.20
2022-11-12T13:29:45.849Z,7.72
2022-11-12T13:32:48.737Z,7.38
2022-11-12T13:35:40.643Z,6.93
2022-11-12T13:38:27.288Z,6.10
2022-11-12T13:41:39.918Z,5.47
2022-11-12T13:44:25.616Z,4.47
2022-11-12T13:47:13.886Z,3.20
2022-11-12T13:50:00.320Z,4.13
2022-11-12T13:52:45.911Z,3.50
2022-11-12T13:55:34.257Z,4.03
2022-11-12T13:58:26.158Z,4.35
2022-11-12T14:01:11.844Z,4.50
2022-11-12T14:03:57.877Z,4.05
2022-11-12T14:06:45.747Z,6.57
2022-11-12T14:09:50.967Z,4.80
2022-11-12T14:15:33.720Z,5.55
2022-11-12T14:18:47.261Z,4.70
2022-11-12T14:21:33.635Z,4.20
2022-11-12T14:24:19.078Z,4.43
2022-11-12T14:27:04.654Z,5.53
2022-11-12T14:29:58.606Z,5.65
2022-11-12T14:32:46.118Z,6.38
2022-11-12T14:35:36.511Z,6.32
2022-11-12T14:38:26.504Z,5.75
2022-11-12T14:41:24.294Z,6.30
2022-11-12T14:44:14.898Z,5.30
2022-11-12T14:47:00.737Z,6.25
2022-11-12T14:49:47.749Z,6.15
2022-11-12T14:52:35.894Z,5.43
2022-11-12T14:55:27.688Z,5.38
2022-11-12T14:58:16.903Z,5.00
2022-11-12T15:04:54.668Z,6.07
2022-11-12T15:08:01.462Z,6.80
2022-11-12T15:10:47.007Z,7.00
2022-11-12T15:13:38.429Z,5.70
2022-11-12T15:16:28.792Z,6.70
2022-11-12T15:19:17.439Z,6.45
2022-11-12T15:22:02.985Z,6.30
2022-11-12T15:24:49.689Z,6.43
2022-11-12T15:27:38.224Z,8.65
2022-11-12T15:30:28.676Z,10.65
2022-11-12T15:33:15.720Z,9.75
2022-11-12T15:36:01.618Z,9.85
2022-11-12T15:38:48.827Z,10.57
2022-11-12T15:41:35.457Z,12.27
2022-11-12T15:44:21.277Z,13.88
2022-11-12T15:47:08.352Z,19.48
2022-11-12T15:49:57.237Z,16.77
2022-11-12T15:52:43.051Z,17.65
2022-11-12T15:55:31.031Z,16.70
2022-11-12T15:58:30.444Z,24.77
2022-11-12T16:01:17.067Z,22.40
2022-11-12T16:04:06.025Z,28.80
2022-11-12T16:06:51.488Z,30.80
2022-11-12T16:09:39.074Z,31.80
2022-11-12T16:12:27.457Z,31.02
2022-11-12T16:15:31.300Z,29.55
2022-11-12T16:18:20.067Z,34.00
2022-11-12T16:21:08.073Z,36.63
2022-11-12T16:23:56.931Z,33.67
2022-11-12T16:26:43.852Z,37.17
2022-11-12T16:29:53.234Z,39.90
2022-11-12T16:32:42.570Z,37.38
2022-11-12T16:35:34.310Z,40.90
2022-11-12T16:38:27.039Z,45.38
2022-11-12T16:41:14.378Z,50.13
2022-11-12T16:44:03.805Z,53.75
2022-11-12T16:46:59.419Z,60.53
2022-11-12T16:49:46.290Z,60.30
2022-11-12T16:52:34.929Z,60.33
2022-11-12T16:55:23.615Z,65.82
2022-11-12T16:58:13.896Z,65.18
2022-11-12T17:00:59.136Z,79.80
2022-11-12T17:03:44.486Z,67.90
2022-11-12T17:06:42.709Z,63.42
2022-11-12T17:09:31.164Z,70.20
2022-11-12T17:12:16.750Z,63.75
2022-11-12T17:15:02.171Z,64.43
2022-11-12T17:17:47.358Z,66.90
2022-11-12T17:20:33.995Z,58.53
2022-11-12T17:23:19.557Z,57.60
2022-11-12T17:26:06.454Z,57.08
2022-11-12T17:29:00.091Z,59.05
2022-11-12T17:34:40.089Z,64.70
2022-11-12T17:37:28.657Z,52.58
2022-11-12T17:40:14.203Z,84.22
2022-11-12T17:42:59.703Z,77.90
2022-11-12T17:45:51.833Z,84.00
2022-11-12T17:48:37.735Z,95.05
2022-11-12T17:51:24.629Z,85.32
2022-11-12T17:54:10.070Z,92.18
2022-11-12T17:56:55.428Z,70.95
2022-11-12T17:59:40.995Z,94.70
2022-11-12T18:02:26.408Z,105.88
2022-11-12T18:05:14.752Z,76.57
2022-11-12T18:08:00.450Z,74.90
2022-11-12T18:10:45.999Z,68.95
2022-11-12T18:13:32.799Z,61.50
2022-11-12T18:16:23.833Z,69.28
2022-11-12T18:19:12.857Z,51.53
2022-11-12T18:21:59.736Z,49.65
2022-11-12T18:24:47.860Z,63.05
2022-11-12T18:27:34.981Z,65.60
2022-11-12T18:30:23.302Z,55.85
2022-11-12T18:33:12.253Z,57.45
2022-11-12T18:36:10.746Z,60.72
2022-11-12T18:38:58.281Z,54.22
2022-11-12T18:41:47.932Z,67.53
2022-11-12T18:44:36.979Z,67.38
2022-11-12T18:47:23.009Z,68.43
2022-11-12T18:50:10.695Z,63.53
2022-11-12T18:52:58.863Z,57.80
2022-11-12T18:55:47.055Z,64.10
2022-11-12T18:58:52.685Z,62.90
2022-11-12T19:01:45.756Z,54.33
2022-11-12T19:04:33.077Z,56.03
2022-11-12T19:07:22.742Z,63.28
2022-11-12T19:10:14.749Z,59.05
2022-11-12T19:13:03.860Z,55.55
2022-11-12T19:15:51.756Z,56.03
2022-11-12T19:18:40.287Z,58.75
2022-11-12T19:21:28.439Z,51.42
2022-11-12T19:24:16.662Z,57.55
2022-11-12T19:27:02.184Z,58.20
2022-11-12T19:29:50.662Z,59.97
2022-11-12T19:32:39.252Z,60.72
2022-11-12T19:35:25.849Z,56.47
2022-11-12T19:38:15.381Z,59.63
2022-11-12T19:41:08.332Z,70.40
2022-11-12T19:43:56.022Z,70.07
2022-11-12T19:46:44.095Z,69.72
2022-11-12T19:49:29.767Z,76.35
2022-11-12T19:52:17.167Z,78.65
2022-11-12T19:55:02.789Z,79.38
2022-11-12T19:57:48.221Z,80.20
2022-11-12T20:00:37.374Z,65.50
2022-11-12T20:03:25.842Z,63.55
2022-11-12T20:06:19.450Z,61.58
2022-11-12T20:09:07.859Z,61.65
2022-11-12T20:11:56.402Z,62.25
2022-11-12T20:14:41.967Z,59.95
2022-11-12T20:17:40.591Z,64.78
2022-11-12T20:20:26.506Z,63.85
2022-11-12T20:23:13.611Z,66.15
2022-11-12T20:26:12.375Z,68.40
2022-11-12T20:28:58.787Z,62.40
2022-11-12T20:31:45.588Z,61.90
2022-11-12T20:34:34.156Z,59.17
2022-11-12T20:37:22.698Z,59.90
2022-11-12T20:40:08.615Z,59.92
2022-11-12T20:42:55.929Z,54.15
2022-11-12T20:45:44.258Z,60.05
2022-11-12T20:48:33.311Z,54.20
2022-11-12T20:51:26.066Z,53.25
2022-11-12T20:54:14.270Z,55.65
2022-11-12T20:57:03.034Z,54.72
2022-11-12T20:59:52.040Z,57.40
2022-11-12T21:02:37.741Z,59.88
2022-11-12T21:06:03.101Z,57.28
2022-11-12T21:08:54.146Z,59.67
2022-11-12T21:11:39.813Z,60.60
2022-11-12T21:14:28.325Z,56.17
2022-11-12T21:17:13.568Z,59.25
2022-11-12T21:19:59.705Z,66.20
2022-11-12T21:22:45.185Z,62.50
2022-11-12T21:25:30.557Z,63.00
2022-11-12T21:28:15.973Z,75.07
2022-11-12T21:31:11.898Z,76.60
2022-11-12T21:34:00.248Z,82.35
2022-11-12T21:36:45.873Z,82.38
2022-11-12T21:39:31.249Z,91.90
2022-11-12T21:42:16.715Z,90.55
2022-11-12T21:45:02.284Z,83.80
2022-11-12T21:47:47.682Z,84.32
2022-11-12T21:50:33.246Z,83.32
2022-11-12T21:53:21.465Z,81.20
2022-11-12T21:56:11.023Z,69.95
2022-11-12T21:59:00.583Z,69.40
2022-11-12T22:01:46.362Z,74.07
2022-11-12T22:04:32.272Z,74.18
2022-11-12T22:07:17.766Z,71.80
2022-11-12T22:10:03.462Z,68.50
2022-11-12T22:13:12.094Z,62.88
2022-11-12T22:15:54.848Z,61.67
2022-11-12T22:18:40.533Z,58.40
2022-11-12T22:21:27.983Z,59.22
2022-11-12T22:24:20.866Z,54.17
2022-11-12T22:27:07.359Z,53.13
2022-11-12T22:29:53.580Z,48.05
2022-11-12T22:32:42.421Z,48.88
2022-11-12T22:35:29.381Z,44.00
2022-11-12T22:38:17.318Z,44.17
2022-11-12T22:41:18.012Z,43.92
2022-11-12T22:44:09.822Z,41.88
2022-11-12T22:50:03.672Z,40.97
2022-11-12T22:52:50.586Z,41.08
2022-11-12T22:55:39.899Z,40.72
2022-11-12T22:58:29.107Z,41.10
2022-11-12T23:01:28.563Z,43.55
2022-11-12T23:04:16.676Z,40.47
2022-11-12T23:07:41.375Z,42.03
2022-11-12T23:22:07.548Z,40.28
2022-11-12T23:25:14.925Z,43.70
2022-11-12T23:32:08.207Z,43.22
2022-11-12T23:38:37.297Z,39.45
2022-11-12T23:41:25.831Z,37.45
2022-11-12T23:44:11.604Z,36.08
2022-11-12T23:55:06.010Z,39.35
2022-11-12T23:58:13.138Z,35.63
